createdAt,value
2019-03-27T00:02:16.028Z,5.87
2019-03-27T00:04:43.073Z,8.17
2019-03-27T00:07:09.705Z,7.43
2019-03-27T00:09:36.680Z,5.83
2019-03-27T00:12:03.702Z,6.60
2019-03-27T00:14:30.255Z,5.73
2019-03-27T00:16:56.843Z,6.67
2019-03-27T00:19:23.424Z,6.87
2019-03-27T00:21:50.192Z,6.80
2019-03-27T00:24:16.817Z,5.43
2019-03-27T00:26:43.731Z,6.17
2019-03-27T00:29:10.323Z,4.63
2019-03-27T00:31:36.889Z,5.87
2019-03-27T00:34:03.483Z,7.53
2019-03-27T00:36:30.087Z,4.97
2019-03-27T00:38:56.648Z,5.93
2019-03-27T00:41:23.461Z,5.73
2019-03-27T00:43:50.057Z,6.00
2019-03-27T00:46:16.641Z,5.87
2019-03-27T00:48:43.306Z,5.93
2019-03-27T00:51:10.351Z,7.30
2019-03-27T00:53:36.958Z,4.10
2019-03-27T00:56:03.646Z,6.03
2019-03-27T00:58:30.217Z,5.70
2019-03-27T01:00:56.931Z,5.70
2019-03-27T01:03:23.844Z,7.37
2019-03-27T01:05:50.410Z,7.63
2019-03-27T01:08:16.986Z,6.97
2019-03-27T01:10:43.586Z,6.83
2019-03-27T01:13:10.270Z,4.83
2019-03-27T01:15:40.022Z,5.57
2019-03-27T01:18:05.428Z,7.20
2019-03-27T01:20:32.358Z,6.13
2019-03-27T01:22:58.946Z,6.57
2019-03-27T01:25:25.548Z,6.00
2019-03-27T01:27:52.131Z,6.73
2019-03-27T01:30:18.783Z,8.13
2019-03-27T01:32:45.351Z,5.17
2019-03-27T01:35:12.102Z,8.43
2019-03-27T01:37:38.672Z,5.23
2019-03-27T01:40:05.293Z,7.43
2019-03-27T01:42:31.869Z,8.23
2019-03-27T01:44:58.440Z,9.13
2019-03-27T01:47:25.026Z,5.00
2019-03-27T01:49:51.637Z,6.03
2019-03-27T01:52:18.256Z,7.43
2019-03-27T01:54:44.870Z,8.07
2019-03-27T01:57:11.465Z,7.40
2019-03-27T01:59:38.030Z,5.77
2019-03-27T02:02:04.585Z,6.17
2019-03-27T02:04:31.514Z,5.80
2019-03-27T02:06:58.097Z,5.80
2019-03-27T02:09:24.647Z,7.73
2019-03-27T02:11:51.200Z,8.80
2019-03-27T02:14:17.757Z,6.50
2019-03-27T02:16:44.653Z,5.17
2019-03-27T02:19:11.224Z,5.93
2019-03-27T02:21:37.819Z,5.40
2019-03-27T02:24:04.383Z,4.93
2019-03-27T02:26:30.963Z,7.83
2019-03-27T02:28:57.676Z,7.10
2019-03-27T02:31:25.149Z,8.63
2019-03-27T02:33:51.735Z,5.13
2019-03-27T02:36:18.777Z,8.30
2019-03-27T02:38:45.375Z,4.73
2019-03-27T02:41:12.361Z,5.23
2019-03-27T02:43:39.061Z,4.93
2019-03-27T02:46:05.615Z,5.97
2019-03-27T02:48:32.187Z,6.87
2019-03-27T02:50:58.987Z,7.27
2019-03-27T02:53:25.654Z,6.77
2019-03-27T02:55:52.315Z,5.13
2019-03-27T02:58:18.956Z,3.77
2019-03-27T03:00:45.512Z,5.80
2019-03-27T03:03:12.074Z,6.77
2019-03-27T03:05:38.674Z,4.33
2019-03-27T03:08:05.565Z,5.70
2019-03-27T03:10:32.242Z,4.77
2019-03-27T03:12:58.821Z,6.50
2019-03-27T03:15:25.397Z,5.20
2019-03-27T03:17:51.965Z,7.80
2019-03-27T03:20:18.590Z,6.20
2019-03-27T03:22:45.156Z,7.80
2019-03-27T03:25:11.797Z,5.43
2019-03-27T03:27:38.340Z,7.13
2019-03-27T03:30:04.942Z,5.70
2019-03-27T03:32:31.603Z,7.33
2019-03-27T03:34:58.540Z,6.83
2019-03-27T03:37:25.146Z,5.50
2019-03-27T03:39:51.680Z,6.90
2019-03-27T03:42:18.302Z,6.90
2019-03-27T03:44:45.346Z,6.00
2019-03-27T03:47:12.017Z,4.93
2019-03-27T03:49:38.638Z,6.13
2019-03-27T03:52:05.176Z,6.70
2019-03-27T03:54:31.757Z,6.07
2019-03-27T03:56:58.759Z,7.47
2019-03-27T03:59:25.395Z,6.40
2019-03-27T04:01:51.962Z,6.10
2019-03-27T04:04:18.574Z,6.97
2019-03-27T04:06:45.157Z,5.90
2019-03-27T04:09:13.023Z,5.90
2019-03-27T04:11:39.621Z,6.23
2019-03-27T04:14:06.201Z,5.50
2019-03-27T04:16:32.740Z,5.23
2019-03-27T04:18:59.336Z,8.47
2019-03-27T04:21:27.078Z,5.60
2019-03-27T04:23:53.911Z,6.83
2019-03-27T04:26:20.478Z,7.97
2019-03-27T04:28:47.119Z,7.87
2019-03-27T04:31:13.652Z,7.00
2019-03-27T04:33:40.264Z,5.60
2019-03-27T04:36:06.948Z,5.03
2019-03-27T04:38:33.576Z,7.83
2019-03-27T04:41:00.179Z,7.00
2019-03-27T04:43:26.756Z,8.53
2019-03-27T04:45:53.400Z,5.33
2019-03-27T04:48:20.065Z,4.43
2019-03-27T04:50:46.627Z,7.00
2019-03-27T04:53:13.174Z,5.70
2019-03-27T04:55:39.779Z,7.63
2019-03-27T04:58:06.397Z,8.23
2019-03-27T05:00:32.992Z,6.97
2019-03-27T05:02:59.555Z,6.80
2019-03-27T05:05:26.437Z,8.67
2019-03-27T05:07:52.984Z,6.60
2019-03-27T05:10:19.679Z,8.13
2019-03-27T05:12:46.253Z,6.67
2019-03-27T05:15:12.949Z,7.07
2019-03-27T05:17:45.801Z,4.80
2019-03-27T05:20:08.147Z,7.70
2019-03-27T05:22:34.786Z,7.30
2019-03-27T05:25:01.338Z,4.87
2019-03-27T05:27:27.966Z,6.57
2019-03-27T05:29:54.631Z,6.03
2019-03-27T05:32:21.371Z,6.30
2019-03-27T05:34:48.014Z,5.77
2019-03-27T05:37:14.883Z,5.17
2019-03-27T05:39:41.479Z,6.00
2019-03-27T05:42:08.267Z,4.83
2019-03-27T05:44:35.174Z,8.57
2019-03-27T05:47:01.809Z,6.97
2019-03-27T05:49:28.303Z,6.30
2019-03-27T05:51:54.900Z,6.33
2019-03-27T05:54:21.599Z,9.27
2019-03-27T05:56:48.171Z,5.60
2019-03-27T05:59:14.773Z,7.57
2019-03-27T06:01:41.376Z,10.23
2019-03-27T06:04:08.331Z,6.80
2019-03-27T06:06:35.081Z,5.43
2019-03-27T06:09:01.692Z,6.80
2019-03-27T06:11:28.210Z,5.67
2019-03-27T06:13:54.776Z,5.83
2019-03-27T06:16:22.052Z,6.20
2019-03-27T06:18:48.619Z,5.87
2019-03-27T06:21:15.222Z,5.90
2019-03-27T06:23:41.800Z,6.00
2019-03-27T06:26:08.379Z,6.23
2019-03-27T06:28:34.959Z,7.10
2019-03-27T06:31:01.559Z,5.37
2019-03-27T06:33:28.127Z,4.43
2019-03-27T06:35:55.084Z,7.63
2019-03-27T06:38:21.712Z,4.97
2019-03-27T06:40:48.622Z,5.77
2019-03-27T06:43:15.240Z,5.07
2019-03-27T06:45:43.649Z,5.87
2019-03-27T06:48:10.684Z,4.63
2019-03-27T06:50:37.332Z,6.17
2019-03-27T06:53:04.040Z,8.07
2019-03-27T06:55:30.831Z,7.23
2019-03-27T06:57:57.846Z,7.13
2019-03-27T07:00:24.419Z,6.83
2019-03-27T07:02:50.990Z,7.10
2019-03-27T07:05:18.458Z,5.83
2019-03-27T07:07:45.098Z,7.27
2019-03-27T07:10:11.717Z,8.73
2019-03-27T07:12:38.462Z,8.30
2019-03-27T07:15:05.212Z,6.40
2019-03-27T07:17:32.111Z,5.10
2019-03-27T07:19:58.676Z,4.83
2019-03-27T07:22:25.293Z,7.20
2019-03-27T07:24:51.896Z,6.70
2019-03-27T07:27:18.470Z,7.20
2019-03-27T07:29:48.496Z,8.70
2019-03-27T07:32:15.384Z,7.87
2019-03-27T07:34:41.983Z,5.00
2019-03-27T07:37:08.732Z,5.93
2019-03-27T07:39:35.424Z,7.40
2019-03-27T07:42:01.962Z,5.50
2019-03-27T07:44:28.526Z,4.90
2019-03-27T07:46:55.176Z,5.33
2019-03-27T07:49:21.772Z,5.90
2019-03-27T07:51:48.325Z,6.73
2019-03-27T07:54:14.879Z,5.93
2019-03-27T07:56:41.504Z,8.27
2019-03-27T07:59:08.250Z,6.63
2019-03-27T08:01:35.005Z,9.27
2019-03-27T08:04:01.690Z,6.70
2019-03-27T08:06:28.557Z,7.60
2019-03-27T08:08:55.130Z,5.80
2019-03-27T08:11:21.798Z,5.70
2019-03-27T08:13:48.761Z,7.17
2019-03-27T08:16:15.369Z,5.77
2019-03-27T08:18:42.071Z,6.30
2019-03-27T08:21:08.838Z,8.57
2019-03-27T08:23:35.486Z,6.40
2019-03-27T08:26:02.085Z,6.33
2019-03-27T08:28:29.031Z,6.57
2019-03-27T08:30:55.881Z,7.37
2019-03-27T08:33:22.454Z,5.27
2019-03-27T08:35:49.025Z,7.67
2019-03-27T08:38:15.753Z,6.03
2019-03-27T08:40:42.753Z,8.50
2019-03-27T08:43:20.754Z,7.27
2019-03-27T08:45:39.143Z,6.97
2019-03-27T08:48:06.113Z,6.97
2019-03-27T08:50:32.678Z,6.70
2019-03-27T08:52:59.293Z,5.27
2019-03-27T08:55:26.060Z,8.97
2019-03-27T08:57:52.629Z,5.53
2019-03-27T09:00:21.317Z,5.27
2019-03-27T09:02:47.995Z,5.60
2019-03-27T09:05:14.966Z,6.80
2019-03-27T09:07:41.885Z,5.27
2019-03-27T13:34:27.093Z,3.40
2019-03-27T13:36:53.731Z,3.87
2019-03-27T13:39:20.457Z,3.27
2019-03-27T13:41:47.178Z,3.23
2019-03-27T13:44:13.865Z,3.10
2019-03-27T13:46:41.710Z,4.57
2019-03-27T13:49:08.343Z,3.57
2019-03-27T13:51:40.707Z,3.63
2019-03-27T13:54:03.715Z,4.23
2019-03-27T13:56:30.857Z,4.27
2019-03-27T13:58:57.491Z,2.63
2019-03-27T14:01:24.304Z,3.40
2019-03-27T14:03:51.323Z,2.73
2019-03-27T14:06:17.956Z,2.87
2019-03-27T14:08:44.624Z,3.87
2019-03-27T14:11:11.295Z,3.27
2019-03-27T14:13:37.881Z,3.90
2019-03-27T14:16:04.465Z,4.10
2019-03-27T14:18:31.065Z,2.90
2019-03-27T14:20:57.763Z,2.60
2019-03-27T14:23:24.367Z,4.27
2019-03-27T14:25:50.971Z,3.30
2019-03-27T14:28:17.637Z,2.87
2019-03-27T14:30:44.312Z,3.40
2019-03-27T14:33:10.919Z,2.83
2019-03-27T14:35:37.571Z,4.47
2019-03-27T14:38:04.226Z,4.07
2019-03-27T14:40:30.793Z,3.93
2019-03-27T14:42:57.458Z,3.07
2019-03-27T14:45:24.037Z,3.07
2019-03-27T14:47:50.996Z,3.00
2019-03-27T14:50:17.613Z,3.30
2019-03-27T14:52:46.225Z,2.87
2019-03-27T14:55:12.955Z,3.27
2019-03-27T14:57:39.564Z,4.63
2019-03-27T15:00:14.317Z,4.20
2019-03-27T15:02:40.930Z,3.13
2019-03-27T15:05:07.710Z,4.03
2019-03-27T15:07:34.293Z,3.97
2019-03-27T15:10:01.403Z,2.97
2019-03-27T15:12:28.007Z,3.03
2019-03-27T15:14:54.605Z,4.97
2019-03-27T15:17:23.056Z,3.40
2019-03-27T15:19:49.639Z,3.87
2019-03-27T15:22:22.218Z,4.27
2019-03-27T15:24:45.420Z,4.13
2019-03-27T15:27:12.374Z,5.30
2019-03-27T15:29:38.975Z,3.77
2019-03-27T15:32:05.771Z,3.63
2019-03-27T15:34:32.357Z,4.83
2019-03-27T15:36:59.472Z,3.57
2019-03-27T15:39:26.866Z,3.87
2019-03-27T15:41:53.680Z,4.53
2019-03-27T15:44:21.493Z,4.43
2019-03-27T15:46:47.997Z,5.80
2019-03-27T15:49:14.615Z,5.97
2019-03-27T15:51:41.347Z,5.17
2019-03-27T15:54:08.159Z,6.87
2019-03-27T15:56:38.329Z,5.70
2019-03-27T15:59:03.744Z,6.17
2019-03-27T16:01:30.464Z,5.40
2019-03-27T16:03:57.081Z,5.27
2019-03-27T16:06:24.587Z,4.83
2019-03-27T16:08:51.577Z,6.03
2019-03-27T16:11:18.490Z,4.73
2019-03-27T16:13:47.715Z,4.67
2019-03-27T16:16:14.591Z,6.90
2019-03-27T16:18:41.252Z,3.57
2019-03-27T16:21:07.961Z,4.50
2019-03-27T16:23:34.858Z,9.73
2019-03-27T16:26:01.641Z,6.17
2019-03-27T16:28:28.565Z,6.00
2019-03-27T16:30:55.685Z,5.00
2019-03-27T16:33:22.984Z,5.33
2019-03-27T16:35:50.809Z,5.00
2019-03-27T16:38:17.379Z,4.60
2019-03-27T16:40:44.236Z,5.27
2019-03-27T16:43:11.001Z,6.70
2019-03-27T16:45:39.770Z,5.70
2019-03-27T16:48:06.499Z,5.37
2019-03-27T16:50:33.095Z,4.77
2019-03-27T16:53:03.883Z,5.47
2019-03-27T16:55:28.367Z,7.40
2019-03-27T16:57:55.281Z,4.20
2019-03-27T17:00:22.216Z,4.93
2019-03-27T17:02:49.120Z,7.33
2019-03-27T17:05:16.090Z,4.47
2019-03-27T17:07:44.794Z,5.97
2019-03-27T17:10:11.462Z,6.63
2019-03-27T17:12:38.124Z,6.73
2019-03-27T17:15:04.771Z,6.30
2019-03-27T17:17:31.409Z,5.37
2019-03-27T17:19:57.953Z,5.90
2019-03-27T17:22:25.110Z,5.17
2019-03-27T17:24:51.757Z,6.37
2019-03-27T17:27:19.645Z,6.17
2019-03-27T17:29:46.352Z,9.40
2019-03-27T17:32:13.288Z,9.23
2019-03-27T17:34:39.836Z,7.13
2019-03-27T17:37:06.577Z,7.53
2019-03-27T17:39:33.148Z,7.13
2019-03-27T17:42:00.112Z,9.07
2019-03-27T17:44:26.672Z,8.93
2019-03-27T17:46:53.326Z,8.17
2019-03-27T17:49:20.207Z,7.37
2019-03-27T17:51:47.242Z,7.03
2019-03-27T17:54:20.371Z,5.37
2019-03-27T17:56:44.922Z,7.50
2019-03-27T17:59:11.390Z,12.67
2019-03-27T18:01:39.169Z,12.73
2019-03-27T18:04:05.769Z,7.60
2019-03-27T18:06:32.429Z,9.10
2019-03-27T18:08:59.017Z,12.37
2019-03-27T18:11:26.105Z,9.33
2019-03-27T18:13:53.021Z,10.87
2019-03-27T18:16:19.791Z,11.57
2019-03-27T18:18:46.381Z,14.77
2019-03-27T18:21:12.967Z,9.27
2019-03-27T18:23:45.979Z,12.47
2019-03-27T18:26:08.500Z,15.80
2019-03-27T18:28:35.349Z,9.77
2019-03-27T18:31:01.931Z,11.97
2019-03-27T18:33:28.757Z,11.97
2019-03-27T18:35:55.374Z,7.80
2019-03-27T18:38:22.093Z,8.73
2019-03-27T18:40:48.733Z,10.27
2019-03-27T18:43:15.400Z,11.03
2019-03-27T18:45:41.997Z,7.67
2019-03-27T18:48:08.673Z,8.37
2019-03-27T18:50:35.276Z,9.27
2019-03-27T18:53:02.193Z,8.13
2019-03-27T18:55:28.782Z,9.20
2019-03-27T18:58:00.330Z,8.83
2019-03-27T19:00:24.115Z,9.80
2019-03-27T19:02:50.855Z,8.20
2019-03-27T19:05:17.569Z,10.30
2019-03-27T19:07:44.582Z,10.03
2019-03-27T19:10:11.266Z,9.37
2019-03-27T19:12:38.278Z,10.57
2019-03-27T19:15:04.870Z,11.63
2019-03-27T19:17:31.851Z,8.20
2019-03-27T19:19:58.858Z,8.60
2019-03-27T19:22:25.474Z,7.00
2019-03-27T19:24:52.098Z,9.83
2019-03-27T19:27:18.774Z,7.17
2019-03-27T19:29:45.495Z,8.63
2019-03-27T19:32:12.216Z,9.07
2019-03-27T19:34:38.830Z,8.20
2019-03-27T19:37:05.413Z,11.03
2019-03-27T19:39:32.324Z,10.33
2019-03-27T19:41:59.070Z,9.37
2019-03-27T19:44:26.255Z,11.93
2019-03-27T19:46:53.048Z,9.90
2019-03-27T19:49:19.698Z,9.13
2019-03-27T19:51:46.439Z,9.67
2019-03-27T19:54:26.212Z,13.00
2019-03-27T19:56:41.503Z,9.63
2019-03-27T19:59:08.127Z,8.77
2019-03-27T20:01:35.188Z,13.07
2019-03-27T20:04:02.139Z,10.50
2019-03-27T20:06:28.750Z,12.10
2019-03-27T20:08:56.798Z,9.47
2019-03-27T20:11:23.653Z,9.20
2019-03-27T20:13:50.192Z,9.57
2019-03-27T20:16:18.254Z,10.97
2019-03-27T20:18:45.392Z,11.67
2019-03-27T20:21:12.023Z,10.70
2019-03-27T20:23:38.608Z,8.27
2019-03-27T20:26:05.149Z,11.27
2019-03-27T20:28:31.714Z,10.23
2019-03-27T20:30:58.313Z,10.33
2019-03-27T20:33:24.985Z,11.80
2019-03-27T20:38:31.191Z,9.87
2019-03-27T20:40:58.239Z,13.80
2019-03-27T20:43:24.860Z,11.87
2019-03-27T20:45:51.486Z,10.90
2019-03-27T20:48:18.379Z,11.40
2019-03-27T20:50:45.074Z,12.27
2019-03-27T20:53:11.624Z,11.67
2019-03-27T20:55:38.229Z,11.07
2019-03-27T20:58:04.936Z,10.63
2019-03-27T21:00:31.643Z,13.13
2019-03-27T21:02:58.284Z,10.10
2019-03-27T21:05:24.888Z,11.87
2019-03-27T21:07:51.448Z,13.17
2019-03-27T21:10:18.042Z,11.73
2019-03-27T21:12:44.634Z,13.37
2019-03-27T21:15:11.214Z,9.60
2019-03-27T21:17:37.779Z,13.10
2019-03-27T21:20:04.614Z,12.17
2019-03-27T21:22:31.237Z,14.83
2019-03-27T21:25:07.954Z,12.23
2019-03-27T21:27:26.516Z,11.17
2019-03-27T21:29:53.027Z,11.20
2019-03-27T21:32:19.633Z,10.60
2019-03-27T21:34:46.428Z,11.50
2019-03-27T21:37:13.427Z,10.87
2019-03-27T21:39:40.066Z,13.70
2019-03-27T21:42:06.681Z,13.67
2019-03-27T21:44:33.426Z,13.33
2019-03-27T21:47:00.405Z,11.60
2019-03-27T21:49:27.074Z,11.60
2019-03-27T21:51:53.753Z,10.13
2019-03-27T21:54:20.536Z,12.80
2019-03-27T21:56:47.514Z,9.77
2019-03-27T21:59:14.230Z,13.57
2019-03-27T22:01:40.894Z,14.03
2019-03-27T22:04:07.557Z,11.43
2019-03-27T22:06:34.709Z,11.37
2019-03-27T22:09:01.355Z,11.07
2019-03-27T22:11:28.018Z,12.63
2019-03-27T22:13:54.721Z,9.63
2019-03-27T22:16:21.352Z,10.90
2019-03-27T22:18:48.116Z,12.50
2019-03-27T22:21:14.738Z,12.03
2019-03-27T22:23:41.356Z,12.70
2019-03-27T22:26:08.259Z,11.13
2019-03-27T22:28:34.903Z,12.70
2019-03-27T22:31:01.938Z,13.00
2019-03-27T22:33:28.687Z,11.67
2019-03-27T22:35:55.311Z,14.63
2019-03-27T22:38:21.934Z,12.17
2019-03-27T22:40:48.589Z,11.30
2019-03-27T22:43:15.264Z,12.80
2019-03-27T22:45:42.180Z,14.17
2019-03-27T22:48:09.101Z,13.57
2019-03-27T22:50:35.730Z,15.47
2019-03-27T22:53:02.782Z,13.33
2019-03-27T22:55:30.400Z,11.43
2019-03-27T22:57:57.384Z,12.67
2019-03-27T23:00:31.612Z,11.70
2019-03-27T23:02:58.578Z,13.07
2019-03-27T23:05:25.854Z,11.53
2019-03-27T23:07:52.511Z,11.47
2019-03-27T23:10:19.102Z,12.43
2019-03-27T23:12:45.714Z,9.60
2019-03-27T23:15:12.330Z,12.50
2019-03-27T23:17:38.971Z,10.90
2019-03-27T23:20:05.946Z,11.70
2019-03-27T23:22:32.628Z,13.67
2019-03-27T23:24:59.284Z,12.77
2019-03-27T23:27:26.304Z,16.23
2019-03-27T23:29:52.926Z,13.70
2019-03-27T23:32:19.553Z,11.87
2019-03-27T23:34:46.176Z,13.90
2019-03-27T23:37:12.851Z,14.03
2019-03-27T23:39:44.013Z,13.93
2019-03-27T23:42:11.656Z,12.10
2019-03-27T23:44:38.956Z,13.57
2019-03-27T23:47:06.068Z,13.13
2019-03-27T23:49:32.681Z,13.97
2019-03-27T23:51:59.293Z,14.30
2019-03-27T23:54:26.194Z,13.93
2019-03-27T23:56:52.835Z,13.13
2019-03-27T23:59:19.788Z,12.77
